createdAt,value
2018-02-09T00:00:36.508Z,2.50
2018-02-09T00:03:03.957Z,2.50
2018-02-09T00:05:31.426Z,2.60
2018-02-09T00:07:58.890Z,2.60
2018-02-09T00:10:27.118Z,2.70
2018-02-09T00:12:54.583Z,2.60
2018-02-09T00:15:22.039Z,2.70
2018-02-09T00:17:50.273Z,2.80
2018-02-09T00:20:18.546Z,2.80
2018-02-09T00:22:52.777Z,2.80
2018-02-09T00:25:20.228Z,2.70
2018-02-09T00:27:47.680Z,2.80
2018-02-09T00:30:15.146Z,2.80
2018-02-09T00:32:42.614Z,2.80
2018-02-09T00:35:10.069Z,2.70
2018-02-09T00:37:37.539Z,2.70
2018-02-09T00:40:05.015Z,2.40
2018-02-09T00:42:32.479Z,1.50
2018-02-09T00:44:59.930Z,2.70
2018-02-09T00:47:27.816Z,2.70
2018-02-09T00:49:55.264Z,2.70
2018-02-09T00:52:23.543Z,2.70
2018-02-09T00:54:51.006Z,2.70
2018-02-09T00:57:18.483Z,2.70
2018-02-09T00:59:46.707Z,2.70
2018-02-09T01:02:14.168Z,2.60
2018-02-09T01:04:41.626Z,2.80
2018-02-09T01:07:09.100Z,2.80
2018-02-09T01:09:36.558Z,2.70
2018-02-09T01:12:04.008Z,2.70
2018-02-09T01:14:32.992Z,2.80
2018-02-09T01:17:00.435Z,2.80
2018-02-09T01:19:27.892Z,2.80
2018-02-09T01:21:55.353Z,2.80
2018-02-09T01:24:22.820Z,2.80
2018-02-09T01:26:50.289Z,2.70
2018-02-09T01:29:17.755Z,2.70
2018-02-09T01:31:45.218Z,2.60
2018-02-09T01:34:13.442Z,2.70
2018-02-09T01:36:40.913Z,2.70
2018-02-09T01:39:08.363Z,2.70
2018-02-09T01:41:35.823Z,2.60
2018-02-09T01:44:03.272Z,2.50
2018-02-09T01:46:30.739Z,2.30
2018-02-09T01:48:58.200Z,2.50
2018-02-09T01:51:25.665Z,2.50
2018-02-09T01:53:53.901Z,2.40
2018-02-09T01:56:21.357Z,2.40
2018-02-09T01:58:48.816Z,2.50
2018-02-09T02:01:16.273Z,2.50
2018-02-09T02:03:43.720Z,2.40
2018-02-09T02:06:11.187Z,2.40
2018-02-09T02:08:38.651Z,2.50
2018-02-09T02:11:06.115Z,2.60
2018-02-09T02:13:33.630Z,2.70
2018-02-09T02:16:01.862Z,2.70
2018-02-09T02:18:29.319Z,2.60
2018-02-09T02:20:56.769Z,2.70
2018-02-09T02:23:24.229Z,2.70
2018-02-09T02:25:51.702Z,2.70
2018-02-09T02:28:19.143Z,2.70
2018-02-09T02:30:46.610Z,2.60
2018-02-09T02:33:14.083Z,2.70
2018-02-09T02:35:41.537Z,2.60
2018-02-09T02:38:08.984Z,2.70
2018-02-09T02:40:36.463Z,2.50
2018-02-09T02:43:03.923Z,2.50
2018-02-09T02:45:32.154Z,2.50
2018-02-09T02:48:00.370Z,2.40
2018-02-09T02:50:28.621Z,2.40
2018-02-09T02:52:56.474Z,2.40
2018-02-09T02:55:23.934Z,2.30
2018-02-09T02:57:51.389Z,2.40
2018-02-09T03:00:18.850Z,2.40
2018-02-09T03:02:46.313Z,2.30
2018-02-09T03:05:13.770Z,2.40
2018-02-09T03:07:41.225Z,2.40
2018-02-09T03:10:08.686Z,2.50
2018-02-09T03:12:36.154Z,2.50
2018-02-09T03:15:03.611Z,2.50
2018-02-09T03:17:31.066Z,2.40
2018-02-09T03:19:58.523Z,2.50
2018-02-09T03:22:26.004Z,2.40
2018-02-09T03:24:54.236Z,2.40
2018-02-09T03:27:21.680Z,2.40
2018-02-09T03:29:49.140Z,2.40
2018-02-09T03:32:16.609Z,2.40
2018-02-09T03:34:44.072Z,2.50
2018-02-09T03:37:11.528Z,2.60
2018-02-09T03:39:38.996Z,2.60
2018-02-09T03:42:06.456Z,2.60
2018-02-09T03:44:33.916Z,2.60
2018-02-09T03:47:01.446Z,2.70
2018-02-09T03:49:28.902Z,2.90
2018-02-09T03:51:56.752Z,2.70
2018-02-09T03:54:24.969Z,2.70
2018-02-09T03:56:52.438Z,2.90
2018-02-09T03:59:20.673Z,2.70
2018-02-09T04:01:48.131Z,2.70
2018-02-09T04:04:15.607Z,2.70
2018-02-09T04:06:43.073Z,2.60
2018-02-09T04:09:10.531Z,2.60
2018-02-09T04:11:38.781Z,2.60
2018-02-09T04:14:06.254Z,2.60
2018-02-09T04:16:33.722Z,2.70
2018-02-09T04:19:01.949Z,2.60
2018-02-09T04:21:29.417Z,2.50
2018-02-09T04:23:56.899Z,2.60
2018-02-09T04:26:24.422Z,2.50
2018-02-09T04:28:51.898Z,2.60
2018-02-09T04:31:19.388Z,2.50
2018-02-09T04:33:46.808Z,2.60
2018-02-09T04:36:14.271Z,2.70
2018-02-09T04:38:41.742Z,2.60
2018-02-09T04:41:09.201Z,2.60
2018-02-09T04:43:36.664Z,2.50
2018-02-09T04:46:04.113Z,2.60
2018-02-09T04:48:31.591Z,2.40
2018-02-09T04:50:59.830Z,2.50
2018-02-09T04:53:27.310Z,2.50
2018-02-09T04:55:54.770Z,2.40
2018-02-09T04:58:23.001Z,2.60
2018-02-09T05:00:50.462Z,2.50
2018-02-09T05:03:17.925Z,2.60
2018-02-09T05:05:45.390Z,2.60
2018-02-09T05:08:12.852Z,2.50
2018-02-09T05:10:40.306Z,2.50
2018-02-09T05:13:07.768Z,2.60
2018-02-09T05:15:35.246Z,2.50
2018-02-09T05:18:03.490Z,2.50
2018-02-09T05:20:30.961Z,2.40
2018-02-09T05:22:58.432Z,2.50
2018-02-09T05:25:25.883Z,2.50
2018-02-09T05:27:53.336Z,2.40
2018-02-09T05:30:20.804Z,2.40
2018-02-09T05:32:49.036Z,2.60
2018-02-09T05:35:16.494Z,2.50
2018-02-09T05:37:43.943Z,2.70
2018-02-09T05:40:11.407Z,2.60
2018-02-09T05:42:38.869Z,2.50
2018-02-09T05:45:06.342Z,2.60
2018-02-09T05:47:33.805Z,2.50
2018-02-09T05:50:01.253Z,2.50
2018-02-09T05:52:28.833Z,2.60
2018-02-09T05:54:56.684Z,2.60
2018-02-09T05:57:24.170Z,2.70
2018-02-09T05:59:52.391Z,2.60
2018-02-09T06:02:19.856Z,2.50
2018-02-09T06:04:47.311Z,2.40
2018-02-09T06:07:14.786Z,2.50
2018-02-09T06:09:42.243Z,2.40
2018-02-09T06:12:09.716Z,2.50
2018-02-09T06:14:37.958Z,2.40
2018-02-09T06:17:05.437Z,2.40
2018-02-09T06:19:32.904Z,2.40
2018-02-09T06:22:01.183Z,2.20
2018-02-09T06:24:29.404Z,2.20
2018-02-09T06:26:57.415Z,2.20
2018-02-09T06:29:24.865Z,2.30
2018-02-09T06:31:52.338Z,2.30
2018-02-09T06:34:20.703Z,2.40
2018-02-09T06:36:48.152Z,2.40
2018-02-09T06:39:15.620Z,2.40
2018-02-09T06:41:43.085Z,2.40
2018-02-09T06:44:11.315Z,2.30
2018-02-09T06:46:38.764Z,2.30
2018-02-09T06:49:06.218Z,2.40
2018-02-09T06:51:33.686Z,2.40
2018-02-09T06:54:01.141Z,2.40
2018-02-09T06:56:28.598Z,2.50
2018-02-09T06:58:56.123Z,2.50
2018-02-09T07:01:23.576Z,2.40
2018-02-09T07:03:51.805Z,2.30
2018-02-09T07:06:19.253Z,2.30
2018-02-09T07:08:46.718Z,2.40
2018-02-09T07:11:14.180Z,2.40
2018-02-09T07:13:41.650Z,2.40
2018-02-09T07:16:09.105Z,2.50
2018-02-09T07:18:36.577Z,2.50
2018-02-09T07:21:04.804Z,2.50
2018-02-09T07:23:33.019Z,2.60
2018-02-09T07:26:00.480Z,2.50
2018-02-09T07:28:27.930Z,2.60
2018-02-09T07:30:55.392Z,2.60
2018-02-09T07:33:22.854Z,2.70
2018-02-09T07:35:50.319Z,2.70
2018-02-09T07:38:18.479Z,2.70
2018-02-09T07:40:45.931Z,2.80
2018-02-09T07:43:14.181Z,2.80
2018-02-09T07:45:41.610Z,2.70
2018-02-09T07:48:09.065Z,2.80
2018-02-09T07:50:36.526Z,4.20
2018-02-09T07:53:03.984Z,3.20
2018-02-09T07:55:31.433Z,2.80
2018-02-09T07:57:58.893Z,2.70
2018-02-09T08:00:26.355Z,2.90
2018-02-09T08:02:54.590Z,2.70
2018-02-09T08:05:22.472Z,2.80
2018-02-09T08:07:50.682Z,2.80
2018-02-09T08:10:18.146Z,2.80
2018-02-09T08:12:45.608Z,2.90
2018-02-09T08:15:13.072Z,2.90
2018-02-09T08:17:40.528Z,2.90
2018-02-09T08:20:08.007Z,2.80
2018-02-09T08:22:35.463Z,2.80
2018-02-09T08:25:02.918Z,2.80
2018-02-09T08:27:30.375Z,2.90
2018-02-09T08:29:57.820Z,2.80
2018-02-09T08:32:25.283Z,2.90
2018-02-09T08:34:52.748Z,3.00
2018-02-09T08:37:20.195Z,3.10
2018-02-09T08:39:48.586Z,3.10
2018-02-09T08:42:16.097Z,3.00
2018-02-09T08:44:43.547Z,3.10
2018-02-09T08:47:11.008Z,3.10
2018-02-09T08:49:38.458Z,3.10
2018-02-09T08:52:05.908Z,3.20
2018-02-09T08:54:33.364Z,3.70
2018-02-09T08:57:00.833Z,3.20
2018-02-09T08:59:28.298Z,3.20
2018-02-09T09:01:55.766Z,3.30
2018-02-09T09:04:23.982Z,3.40
2018-02-09T09:06:52.207Z,3.40
2018-02-09T09:09:19.673Z,3.40
2018-02-09T09:11:47.161Z,3.50
2018-02-09T09:14:15.378Z,3.50
2018-02-09T09:16:42.884Z,3.50
2018-02-09T09:19:10.328Z,3.40
2018-02-09T09:21:37.804Z,3.40
2018-02-09T09:24:05.255Z,3.40
2018-02-09T09:26:32.714Z,3.40
2018-02-09T09:29:00.165Z,3.30
2018-02-09T09:31:27.639Z,3.40
2018-02-09T09:33:55.867Z,3.50
2018-02-09T09:36:23.320Z,3.40
2018-02-09T09:38:50.777Z,3.60
2018-02-09T09:41:19.011Z,3.60
2018-02-09T09:43:46.466Z,3.60
2018-02-09T09:46:13.937Z,3.60
2018-02-09T09:48:41.382Z,3.60
2018-02-09T09:51:08.832Z,3.50
2018-02-09T09:53:37.057Z,3.70
2018-02-09T09:56:04.516Z,3.80
2018-02-09T09:58:31.967Z,3.90
2018-02-09T10:00:59.426Z,3.70
2018-02-09T10:03:26.881Z,3.70
2018-02-09T10:05:54.337Z,3.90
2018-02-09T10:08:21.803Z,3.90
2018-02-09T10:10:49.266Z,3.70
2018-02-09T10:13:16.728Z,3.70
2018-02-09T10:15:44.179Z,3.70
2018-02-09T10:18:11.641Z,3.70
2018-02-09T10:20:39.093Z,3.80
2018-02-09T10:23:06.558Z,3.70
2018-02-09T10:25:34.044Z,3.80
2018-02-09T10:28:02.244Z,3.90
2018-02-09T10:30:29.702Z,3.80
2018-02-09T10:32:57.155Z,3.90
2018-02-09T10:35:24.626Z,4.00
2018-02-09T10:37:52.104Z,3.90
2018-02-09T10:40:19.555Z,3.90
2018-02-09T10:42:47.016Z,3.80
2018-02-09T10:45:14.470Z,3.90
2018-02-09T10:47:41.935Z,3.90
2018-02-09T10:50:09.408Z,3.80
2018-02-09T10:52:36.855Z,3.90
2018-02-09T10:55:04.319Z,4.20
2018-02-09T10:57:31.887Z,3.90
2018-02-09T11:00:00.125Z,3.90
2018-02-09T11:02:27.636Z,4.00
2018-02-09T11:04:55.248Z,4.00
2018-02-09T11:07:23.123Z,4.20
2018-02-09T11:09:51.337Z,4.20
2018-02-09T11:12:21.604Z,4.10
2018-02-09T11:14:49.056Z,4.30
2018-02-09T11:17:16.528Z,4.40
2018-02-09T11:19:43.980Z,4.30
2018-02-09T11:22:11.439Z,4.30
2018-02-09T11:24:38.900Z,4.40
2018-02-09T11:27:06.406Z,4.40
2018-02-09T11:29:33.805Z,4.40
2018-02-09T11:32:01.260Z,4.40
2018-02-09T11:34:28.726Z,4.40
2018-02-09T11:36:56.192Z,4.50
2018-02-09T11:39:23.649Z,4.50
2018-02-09T11:41:51.096Z,4.40
2018-02-09T11:44:18.566Z,4.40
2018-02-09T11:46:46.024Z,4.40
2018-02-09T11:49:13.481Z,4.50
2018-02-09T11:51:40.972Z,4.50
2018-02-09T11:54:08.433Z,4.50
2018-02-09T11:56:35.893Z,4.40
2018-02-09T11:59:03.355Z,4.50
2018-02-09T12:01:30.813Z,4.50
2018-02-09T12:03:58.267Z,4.30
2018-02-09T12:06:25.736Z,4.50
2018-02-09T12:08:53.967Z,4.30
2018-02-09T12:11:21.424Z,4.30
2018-02-09T12:13:49.659Z,4.40
2018-02-09T12:16:17.117Z,4.40
2018-02-09T12:18:44.568Z,4.30
2018-02-09T12:21:12.037Z,4.30
2018-02-09T12:23:39.506Z,4.30
2018-02-09T12:26:06.960Z,4.30
2018-02-09T12:28:34.421Z,4.40
2018-02-09T12:31:01.880Z,4.40
2018-02-09T12:33:29.333Z,4.40
2018-02-09T12:35:56.803Z,4.40
2018-02-09T12:38:24.265Z,4.40
2018-02-09T12:40:52.497Z,4.40
2018-02-09T12:43:19.992Z,4.40
2018-02-09T12:45:47.400Z,4.40
2018-02-09T12:48:14.866Z,4.50
2018-02-09T12:50:42.316Z,4.50
2018-02-09T12:53:09.800Z,4.50
2018-02-09T12:55:37.257Z,4.40
2018-02-09T12:58:04.704Z,4.80
2018-02-09T13:00:32.165Z,4.50
2018-02-09T13:03:00.387Z,4.40
2018-02-09T13:05:27.862Z,4.30
2018-02-09T13:07:55.315Z,4.10
2018-02-09T13:10:23.186Z,4.20
2018-02-09T13:13:02.579Z,4.20
2018-02-09T13:15:30.449Z,4.30
2018-02-09T13:17:57.906Z,4.30
2018-02-09T13:20:26.150Z,4.20
2018-02-09T13:23:05.541Z,4.20
2018-02-09T13:25:33.008Z,4.30
2018-02-09T13:28:00.467Z,4.20
2018-02-09T13:30:27.923Z,4.40
2018-02-09T13:33:07.174Z,4.40
2018-02-09T13:35:34.651Z,4.30
2018-02-09T13:38:02.100Z,4.40
2018-02-09T13:40:29.567Z,4.40
2018-02-09T13:42:57.037Z,4.30
2018-02-09T13:45:24.488Z,4.20
2018-02-09T13:47:52.721Z,4.20
2018-02-09T13:50:20.184Z,4.20
2018-02-09T13:52:48.426Z,4.20
2018-02-09T13:55:17.477Z,4.20
2018-02-09T13:57:45.030Z,4.20
2018-02-09T14:00:12.493Z,4.20
2018-02-09T14:02:39.950Z,4.30
2018-02-09T14:05:07.402Z,4.20
2018-02-09T14:07:34.870Z,4.20
2018-02-09T14:10:02.337Z,4.20
2018-02-09T14:12:30.564Z,4.10
2018-02-09T14:14:58.043Z,4.10
2018-02-09T14:17:25.509Z,4.20
2018-02-09T14:19:52.974Z,4.30
2018-02-09T14:22:20.462Z,4.30
2018-02-09T14:24:48.689Z,4.20
2018-02-09T14:27:16.147Z,4.20
2018-02-09T14:29:43.626Z,4.30
2018-02-09T14:32:11.846Z,4.30
2018-02-09T14:34:39.308Z,4.30
2018-02-09T14:37:06.768Z,4.40
2018-02-09T14:39:34.219Z,4.30
2018-02-09T14:42:01.669Z,4.30
2018-02-09T14:44:29.115Z,2.80
2018-02-09T14:46:56.572Z,4.20
2018-02-09T14:49:24.792Z,4.30
2018-02-09T14:51:52.260Z,4.20
2018-02-09T14:54:20.481Z,4.00
2018-02-09T14:56:47.958Z,4.10
2018-02-09T14:59:15.408Z,4.10
2018-02-09T15:01:42.878Z,4.10
2018-02-09T15:04:10.352Z,4.10
2018-02-09T15:06:37.817Z,4.30
2018-02-09T15:09:05.290Z,4.30
2018-02-09T15:11:32.749Z,4.20
2018-02-09T15:14:00.215Z,4.10
2018-02-09T15:16:27.686Z,4.10
2018-02-09T15:18:55.902Z,4.00
2018-02-09T15:21:23.354Z,3.90
2018-02-09T15:23:50.808Z,3.90
2018-02-09T15:26:18.289Z,3.90
2018-02-09T15:28:45.797Z,4.00
2018-02-09T15:31:13.212Z,4.00
2018-02-09T15:33:40.677Z,4.00
2018-02-09T15:36:08.128Z,3.90
2018-02-09T15:38:35.599Z,3.80
2018-02-09T15:41:03.050Z,3.80
2018-02-09T15:43:30.510Z,3.80
2018-02-09T15:45:57.960Z,3.70
2018-02-09T15:48:25.428Z,3.70
2018-02-09T15:50:52.874Z,3.70
2018-02-09T15:53:20.328Z,3.50
2018-02-09T15:55:48.191Z,3.50
2018-02-09T15:58:16.055Z,3.60
2018-02-09T16:00:43.493Z,3.50
2018-02-09T16:03:10.948Z,3.60
2018-02-09T16:05:38.415Z,3.50
2018-02-09T16:08:05.886Z,3.50
2018-02-09T16:10:33.336Z,3.50
2018-02-09T16:13:00.830Z,3.60
2018-02-09T16:15:29.070Z,3.50
2018-02-09T16:17:56.546Z,3.50
2018-02-09T16:20:24.010Z,3.50
2018-02-09T16:22:52.240Z,3.40
2018-02-09T16:25:19.699Z,3.30
2018-02-09T16:27:47.166Z,3.30
2018-02-09T16:30:14.619Z,3.30
2018-02-09T16:32:42.061Z,3.30
2018-02-09T16:35:09.526Z,3.30
2018-02-09T16:37:36.988Z,3.30
2018-02-09T16:40:04.454Z,3.30
2018-02-09T16:42:32.680Z,3.30
2018-02-09T16:45:00.146Z,3.20
2018-02-09T16:47:27.605Z,3.30
2018-02-09T16:49:55.072Z,3.20
2018-02-09T16:52:23.445Z,3.20
2018-02-09T16:54:51.644Z,3.20
2018-02-09T16:57:19.115Z,3.60
2018-02-09T16:59:46.573Z,2.90
2018-02-09T17:02:14.046Z,3.40
2018-02-09T17:04:42.264Z,3.40
2018-02-09T17:07:09.734Z,3.40
2018-02-09T17:09:37.181Z,3.20
2018-02-09T17:12:04.694Z,3.30
2018-02-09T17:14:32.918Z,3.20
2018-02-09T17:17:00.388Z,3.10
2018-02-09T17:19:27.846Z,3.20
2018-02-09T17:21:55.315Z,3.20
2018-02-09T17:24:22.766Z,3.20
2018-02-09T17:26:50.235Z,3.10
2018-02-09T17:29:17.683Z,3.20
2018-02-09T17:31:45.146Z,3.30
2018-02-09T17:34:12.608Z,3.30
2018-02-09T17:36:40.064Z,3.30
2018-02-09T17:39:07.517Z,3.20
2018-02-09T17:41:34.964Z,3.20
2018-02-09T17:44:02.422Z,3.20
2018-02-09T17:46:29.890Z,3.20
2018-02-09T17:48:57.358Z,3.20
2018-02-09T17:51:24.805Z,3.10
2018-02-09T17:53:52.288Z,3.40
2018-02-09T17:56:20.492Z,3.20
2018-02-09T17:58:48.366Z,3.10
2018-02-09T18:01:16.216Z,3.10
2018-02-09T18:03:43.656Z,3.10
2018-02-09T18:06:11.888Z,3.00
2018-02-09T18:08:39.354Z,2.90
2018-02-09T18:11:06.814Z,2.90
2018-02-09T18:13:34.251Z,2.90
2018-02-09T18:16:01.710Z,3.00
2018-02-09T18:18:29.162Z,3.00
2018-02-09T18:20:56.623Z,3.00
2018-02-09T18:23:24.073Z,3.00
2018-02-09T18:25:51.538Z,3.00
2018-02-09T18:28:19.005Z,3.00
2018-02-09T18:30:46.468Z,3.00
2018-02-09T18:33:14.679Z,3.10
2018-02-09T18:35:42.150Z,3.00
2018-02-09T18:38:09.613Z,3.10
2018-02-09T18:40:37.487Z,3.20
2018-02-09T18:43:04.942Z,3.10
2018-02-09T18:45:32.400Z,3.00
2018-02-09T18:47:59.847Z,3.00
2018-02-09T18:50:27.326Z,3.00
2018-02-09T18:52:54.976Z,3.10
2018-02-09T18:55:22.874Z,3.10
2018-02-09T18:57:50.272Z,3.10
2018-02-09T19:00:17.729Z,3.00
2018-02-09T19:02:45.595Z,3.10
2018-02-09T19:05:13.051Z,3.00
2018-02-09T19:07:40.499Z,3.10
2018-02-09T19:10:08.718Z,3.20
2018-02-09T19:12:36.198Z,3.20
2018-02-09T19:15:03.657Z,3.20
2018-02-09T19:17:31.126Z,3.30
2018-02-09T19:19:59.344Z,3.40
2018-02-09T19:22:27.668Z,3.40
2018-02-09T19:24:55.120Z,3.40
2018-02-09T19:27:22.586Z,3.50
2018-02-09T19:29:50.045Z,3.50
2018-02-09T19:32:17.501Z,3.50
2018-02-09T19:34:45.748Z,3.30
2018-02-09T19:37:13.194Z,3.30
2018-02-09T19:39:40.644Z,3.30
2018-02-09T19:42:08.141Z,3.30
2018-02-09T19:44:35.590Z,3.20
2018-02-09T19:47:03.047Z,3.10
2018-02-09T19:49:30.572Z,3.10
2018-02-09T19:51:58.024Z,3.00
2018-02-09T19:54:25.524Z,2.90
2018-02-09T19:56:52.996Z,3.10
2018-02-09T19:59:21.224Z,3.00
2018-02-09T20:01:49.435Z,2.80
2018-02-09T20:04:16.898Z,2.80
2018-02-09T20:06:45.120Z,2.90
2018-02-09T20:09:12.586Z,2.80
2018-02-09T20:11:40.040Z,2.90
2018-02-09T20:14:07.497Z,2.90
2018-02-09T20:16:34.950Z,2.90
2018-02-09T20:19:02.404Z,2.90
2018-02-09T20:21:29.868Z,2.90
2018-02-09T20:23:57.327Z,2.90
2018-02-09T20:26:24.898Z,2.80
2018-02-09T20:28:52.324Z,2.90
2018-02-09T20:31:20.566Z,2.80
2018-02-09T20:33:48.839Z,2.80
2018-02-09T20:36:16.400Z,2.80
2018-02-09T20:38:43.844Z,2.80
2018-02-09T20:41:11.286Z,2.80
2018-02-09T20:43:38.733Z,2.80
2018-02-09T20:46:06.181Z,2.90
2018-02-09T20:48:33.631Z,2.90
2018-02-09T20:51:01.099Z,2.80
2018-02-09T20:53:28.544Z,3.00
2018-02-09T20:55:56.000Z,2.90
2018-02-09T20:58:24.244Z,2.90
2018-02-09T21:00:52.105Z,2.90
2018-02-09T21:03:19.970Z,2.90
2018-02-09T21:05:48.189Z,3.00
2018-02-09T21:08:15.685Z,2.90
2018-02-09T21:10:43.139Z,3.00
2018-02-09T21:13:10.593Z,3.00
2018-02-09T21:15:38.060Z,3.00
2018-02-09T21:18:05.529Z,2.90
2018-02-09T21:20:32.982Z,2.90
2018-02-09T21:23:01.247Z,3.00
2018-02-09T21:25:28.706Z,2.90
2018-02-09T21:27:56.924Z,2.90
2018-02-09T21:30:24.386Z,2.90
2018-02-09T21:32:51.841Z,2.90
2018-02-09T21:35:19.307Z,2.90
2018-02-09T21:37:47.387Z,2.90
2018-02-09T21:40:14.840Z,2.90
2018-02-09T21:42:42.310Z,2.90
2018-02-09T21:45:09.773Z,2.80
2018-02-09T21:47:37.238Z,2.80
2018-02-09T21:50:04.676Z,2.90
2018-02-09T21:52:32.904Z,2.90
2018-02-09T21:55:01.130Z,2.90
2018-02-09T21:57:28.582Z,2.70
2018-02-09T21:59:56.030Z,2.80
2018-02-09T22:02:23.473Z,2.90
2018-02-09T22:04:50.921Z,2.80
2018-02-09T22:07:18.376Z,2.80
2018-02-09T22:09:45.830Z,2.80
2018-02-09T22:12:13.299Z,2.70
2018-02-09T22:14:40.756Z,2.70
2018-02-09T22:17:08.223Z,2.70
2018-02-09T22:19:35.808Z,2.70
2018-02-09T22:22:03.257Z,2.70
2018-02-09T22:24:30.709Z,2.70
2018-02-09T22:26:58.916Z,2.70
2018-02-09T22:29:27.154Z,2.70
2018-02-09T22:31:54.616Z,2.70
2018-02-09T22:34:22.093Z,2.80
2018-02-09T22:36:49.557Z,2.80
2018-02-09T22:39:17.014Z,2.80
2018-02-09T22:41:45.263Z,2.70
2018-02-09T22:44:12.685Z,2.60
2018-02-09T22:46:40.198Z,2.60
2018-02-09T22:49:07.645Z,2.60
2018-02-09T22:51:35.502Z,3.40
2018-02-09T22:54:02.971Z,2.60
2018-02-09T22:56:30.422Z,2.70
2018-02-09T22:58:57.870Z,2.60
2018-02-09T23:01:25.330Z,2.60
2018-02-09T23:03:52.780Z,2.60
2018-02-09T23:06:20.250Z,2.60
2018-02-09T23:08:47.700Z,2.60
2018-02-09T23:11:15.170Z,2.60
2018-02-09T23:13:42.621Z,2.60
2018-02-09T23:16:10.072Z,2.60
2018-02-09T23:18:37.539Z,2.70
2018-02-09T23:21:05.009Z,2.60
2018-02-09T23:23:33.231Z,2.60
2018-02-09T23:26:00.684Z,2.60
2018-02-09T23:28:28.145Z,2.60
2018-02-09T23:30:55.609Z,2.60
2018-02-09T23:33:23.052Z,2.60
2018-02-09T23:35:50.516Z,2.60
2018-02-09T23:38:17.980Z,2.50
2018-02-09T23:40:45.434Z,2.70
2018-02-09T23:43:13.302Z,2.60
2018-02-09T23:45:41.167Z,2.60
2018-02-09T23:48:09.374Z,2.60
2018-02-09T23:50:36.823Z,2.50
2018-02-09T23:53:04.283Z,2.50
2018-02-09T23:55:31.747Z,2.50
2018-02-09T23:57:59.974Z,2.60
